Seven Springs, North Carolina
Current Conditions -  °F | °C
As of 6:58 PM on Friday 31 Oct 2014 (Local Time) from KGSB Reporting Station
Clear Clear  
Wind Chill: 56°   Ceiling: Unl
Heat Index: 56°   Visibility: 10mi
Dew Point: 47°   Wind: 5mph
Humidity: 71%   Direction: 350°N
Pressure: 29.79"   Gusts: NA
Location:  35.23°N, 77.85°W
Report Text: KGSB 312258Z AUTO 35004KT 10SM CLR 14/08 A2979 RMK AO2 SLP091 T01350083 $
Loading
Personal Weather Stations






























Interactive Weather Map
Tropical Storm Tracking
New forecast layout! Learn more

10-Day Weather Forecast

Advertisements
Track Severe Weather on mobile